Weott, CA

11:33 AM PDT on October 20, 2014 (GMT -0700)
Rio Dell | Change Station
CLOSE
Current Station
Personal Weather Station
Location: Rio Dell, CA
Elevation: 128 ft
Nearby Weather Stations
4.2 Earthquake: Rio Dell, California (1 day ago)  

Elev 128 ft 40.50 °N, 124.11 °W | Updated 50 seconds ago

Mostly Cloudy
Mostly Cloudy
65.6 °F
Feels Like 65.6 °F
N
1.0
Wind Variable Wind from SE
Gusts 4.0 mph

Today
High -- | Low -- °F
--% Chance of Precip.
Yesterday
High -- | Low -- °F
Precip. -- in
7:31 AM 6:28 PM
Waning Crescent, 9% visible
Pressure 29.92 in
Visibility 10.0 miles
Clouds Mostly Cloudy 6500 ft
Dew Point 59 °F
Humidity 79%
Rainfall 0.20 in
Snow Depth Not available.
UV 2 out of 12
Pollen 2.20 out of 12
Air Quality Not available.
Flu Activity Sporadic
METAR KFOT 201810Z AUTO 14008KT 10SM BKN065 18/13 A2992 RMK AO1

More Conditions Fewer Conditions

Pressure 29.92 in
Visibility 10.0 miles
Clouds Mostly Cloudy 6500 ft
Dew Point 59 °F
Humidity 79%
Rainfall 0.20 in
Snow Depth Not available.
UV 2 out of 12
Pollen 2.20 out of 12
Air Quality Not available.
Flu Activity Sporadic
METAR KFOT 201810Z AUTO 14008KT 10SM BKN065 18/13 A2992 RMK AO1

More Conditions Fewer Conditions

10-Day Weather Forecast

Almanac

Astronomy

Oct. 20, 2014 Rise Set
Actual Time 7:31 AM PDT 6:28 PM PDT
Civil Twilight 7:04 AM PDT 6:55 PM PDT
Nautical Twilight 6:32 AM PDT 7:27 PM PDT
Astronomical Twilight 6:01 AM PDT 7:58 PM PDT
Moon 4:25 AM PDT 4:54 PM PDT
Length of Visible Light 11h 51m
Length of Day
10h 56m
Waning Crescent, 9% of the Moon is Illuminated
Today
Waning Crescent
Oct 23
New
Oct 30
First Quarter
Nov 6
Full
Nov 14
Last Quarter

Today's Extremes

State Highs State Lows

Community

WunderPhotos

Upload Photos

1,763,460 photos uploaded!

Nearby

Snow Depth

Station Depth Elevation
Adin Mountain 0 in 6200 ft
Independence Lake 0 in 8450 ft
Squaw Valley 0 in 8200 ft
Tahoe City Cross 1 in 6750 ft
Rubicon #2 1 in 7500 ft

Earthquake Activity

City Distance Mag. Time & Date
Cobb, California 117 miles 2.5 9:25 PM PDT
2014-10-19
Rio Dell, California 23 miles 4.2 7:24 AM PDT
2014-10-19
Minimum magnitude displayed is 2.5.

Coastal Water Temperatures

Place Temperature
Crescent City, CA 60.1 °F
North Spit, CA 57.9 °F
Port Orford, OR 57.9 °F

Nearby Weather Stations